sensor_id;sensor_type;location;lat;lon;timestamp;temperature;humidity
38684;DHT22;24910;53.248;-6.134;2023-09-18T00:01:31;17.30;94.80
38684;DHT22;24910;53.248;-6.134;2023-09-18T00:04:00;17.30;94.80
38684;DHT22;24910;53.248;-6.134;2023-09-18T00:06:29;17.30;94.80
38684;DHT22;24910;53.248;-6.134;2023-09-18T00:09:00;17.30;94.90
38684;DHT22;24910;53.248;-6.134;2023-09-18T00:11:30;17.30;94.80
38684;DHT22;24910;53.248;-6.134;2023-09-18T00:13:59;17.30;94.90
38684;DHT22;24910;53.248;-6.134;2023-09-18T00:16:29;17.30;94.90
38684;DHT22;24910;53.248;-6.134;2023-09-18T00:19:14;17.20;94.90
38684;DHT22;24910;53.248;-6.134;2023-09-18T00:21:44;17.20;94.90
38684;DHT22;24910;53.248;-6.134;2023-09-18T00:24:14;17.20;94.90
38684;DHT22;24910;53.248;-6.134;2023-09-18T00:26:45;17.20;94.90
38684;DHT22;24910;53.248;-6.134;2023-09-18T00:29:15;17.10;94.90
38684;DHT22;24910;53.248;-6.134;2023-09-18T00:31:44;17.10;95.00
38684;DHT22;24910;53.248;-6.134;2023-09-18T00:34:13;17.10;94.90
38684;DHT22;24910;53.248;-6.134;2023-09-18T00:36:43;17.10;94.90
38684;DHT22;24910;53.248;-6.134;2023-09-18T00:39:14;17.10;94.90
38684;DHT22;24910;53.248;-6.134;2023-09-18T00:41:43;17.10;94.90
38684;DHT22;24910;53.248;-6.134;2023-09-18T00:44:17;17.10;94.90
38684;DHT22;24910;53.248;-6.134;2023-09-18T00:46:47;17.10;94.90
38684;DHT22;24910;53.248;-6.134;2023-09-18T00:49:18;17.10;94.90
38684;DHT22;24910;53.248;-6.134;2023-09-18T00:51:50;17.00;94.90
38684;DHT22;24910;53.248;-6.134;2023-09-18T00:54:21;17.10;94.90
38684;DHT22;24910;53.248;-6.134;2023-09-18T00:56:52;17.10;94.90
38684;DHT22;24910;53.248;-6.134;2023-09-18T00:59:23;17.00;94.90
38684;DHT22;24910;53.248;-6.134;2023-09-18T01:01:52;17.00;94.90
38684;DHT22;24910;53.248;-6.134;2023-09-18T01:04:23;17.00;95.00
38684;DHT22;24910;53.248;-6.134;2023-09-18T01:06:54;16.90;95.00
38684;DHT22;24910;53.248;-6.134;2023-09-18T01:09:27;16.90;95.00
38684;DHT22;24910;53.248;-6.134;2023-09-18T01:12:03;16.90;95.00
38684;DHT22;24910;53.248;-6.134;2023-09-18T01:14:39;16.90;94.90
38684;DHT22;24910;53.248;-6.134;2023-09-18T01:17:11;16.90;94.90
38684;DHT22;24910;53.248;-6.134;2023-09-18T01:19:42;16.90;94.90
38684;DHT22;24910;53.248;-6.134;2023-09-18T01:22:14;16.90;94.90
38684;DHT22;24910;53.248;-6.134;2023-09-18T01:24:48;16.90;94.80
38684;DHT22;24910;53.248;-6.134;2023-09-18T01:27:18;16.90;94.80
38684;DHT22;24910;53.248;-6.134;2023-09-18T01:29:48;16.90;94.80
38684;DHT22;24910;53.248;-6.134;2023-09-18T01:32:19;16.90;94.80
38684;DHT22;24910;53.248;-6.134;2023-09-18T01:34:50;16.90;94.90
38684;DHT22;24910;53.248;-6.134;2023-09-18T01:37:22;16.90;94.80
38684;DHT22;24910;53.248;-6.134;2023-09-18T01:39:53;16.90;94.80
38684;DHT22;24910;53.248;-6.134;2023-09-18T01:42:26;16.90;94.80
38684;DHT22;24910;53.248;-6.134;2023-09-18T01:44:56;17.00;94.80
38684;DHT22;24910;53.248;-6.134;2023-09-18T01:47:25;16.90;94.80
38684;DHT22;24910;53.248;-6.134;2023-09-18T01:49:55;16.90;94.80
38684;DHT22;24910;53.248;-6.134;2023-09-18T01:52:24;16.90;94.80
38684;DHT22;24910;53.248;-6.134;2023-09-18T01:54:55;16.90;94.70
38684;DHT22;24910;53.248;-6.134;2023-09-18T01:57:25;16.90;94.70
38684;DHT22;24910;53.248;-6.134;2023-09-18T01:59:54;16.90;94.70
38684;DHT22;24910;53.248;-6.134;2023-09-18T02:02:24;16.90;94.70
38684;DHT22;24910;53.248;-6.134;2023-09-18T02:05:09;16.90;94.70
38684;DHT22;24910;53.248;-6.134;2023-09-18T02:07:39;16.90;94.70
38684;DHT22;24910;53.248;-6.134;2023-09-18T02:10:10;16.90;94.70
38684;DHT22;24910;53.248;-6.134;2023-09-18T02:12:41;16.90;94.70
38684;DHT22;24910;53.248;-6.134;2023-09-18T02:15:11;17.00;94.70
38684;DHT22;24910;53.248;-6.134;2023-09-18T02:17:40;16.90;94.70
38684;DHT22;24910;53.248;-6.134;2023-09-18T02:20:11;16.90;94.70
38684;DHT22;24910;53.248;-6.134;2023-09-18T02:22:40;16.90;94.70
38684;DHT22;24910;53.248;-6.134;2023-09-18T02:25:11;16.90;94.70
38684;DHT22;24910;53.248;-6.134;2023-09-18T02:27:40;16.90;94.70
38684;DHT22;24910;53.248;-6.134;2023-09-18T02:30:13;16.90;94.70
38684;DHT22;24910;53.248;-6.134;2023-09-18T02:32:42;16.90;94.70
38684;DHT22;24910;53.248;-6.134;2023-09-18T02:35:12;16.90;94.70
38684;DHT22;24910;53.248;-6.134;2023-09-18T02:37:41;16.90;94.80
38684;DHT22;24910;53.248;-6.134;2023-09-18T02:40:12;16.90;94.80
38684;DHT22;24910;53.248;-6.134;2023-09-18T02:42:42;16.90;94.80
38684;DHT22;24910;53.248;-6.134;2023-09-18T02:45:11;16.90;94.70
38684;DHT22;24910;53.248;-6.134;2023-09-18T02:47:41;16.90;94.70
38684;DHT22;24910;53.248;-6.134;2023-09-18T02:50:10;16.90;94.70
38684;DHT22;24910;53.248;-6.134;2023-09-18T02:52:40;16.90;94.80
38684;DHT22;24910;53.248;-6.134;2023-09-18T02:55:09;16.90;94.80
38684;DHT22;24910;53.248;-6.134;2023-09-18T02:57:40;16.90;94.80
38684;DHT22;24910;53.248;-6.134;2023-09-18T03:00:11;16.90;94.80
38684;DHT22;24910;53.248;-6.134;2023-09-18T03:02:40;16.80;94.80
38684;DHT22;24910;53.248;-6.134;2023-09-18T03:05:10;16.80;94.80
38684;DHT22;24910;53.248;-6.134;2023-09-18T03:07:39;16.80;95.30
38684;DHT22;24910;53.248;-6.134;2023-09-18T03:10:09;16.70;94.90
38684;DHT22;24910;53.248;-6.134;2023-09-18T03:12:43;16.70;94.90
38684;DHT22;24910;53.248;-6.134;2023-09-18T03:15:12;16.70;94.90
38684;DHT22;24910;53.248;-6.134;2023-09-18T03:17:42;16.80;94.90
38684;DHT22;24910;53.248;-6.134;2023-09-18T03:20:12;16.70;94.90
38684;DHT22;24910;53.248;-6.134;2023-09-18T03:22:41;16.70;94.90
38684;DHT22;24910;53.248;-6.134;2023-09-18T03:25:11;16.70;95.00
38684;DHT22;24910;53.248;-6.134;2023-09-18T03:27:40;16.70;95.00
38684;DHT22;24910;53.248;-6.134;2023-09-18T03:30:11;16.70;95.00
38684;DHT22;24910;53.248;-6.134;2023-09-18T03:32:44;16.70;95.00
38684;DHT22;24910;53.248;-6.134;2023-09-18T03:35:17;16.60;95.00
38684;DHT22;24910;53.248;-6.134;2023-09-18T03:37:49;16.60;95.00
38684;DHT22;24910;53.248;-6.134;2023-09-18T03:40:19;16.60;95.00
38684;DHT22;24910;53.248;-6.134;2023-09-18T03:42:49;16.60;95.00
38684;DHT22;24910;53.248;-6.134;2023-09-18T03:45:20;16.60;95.00
38684;DHT22;24910;53.248;-6.134;2023-09-18T03:47:50;16.60;94.90
38684;DHT22;24910;53.248;-6.134;2023-09-18T03:50:19;16.60;95.00
38684;DHT22;24910;53.248;-6.134;2023-09-18T03:52:49;16.60;94.90
38684;DHT22;24910;53.248;-6.134;2023-09-18T03:55:18;16.60;94.90
38684;DHT22;24910;53.248;-6.134;2023-09-18T03:57:47;16.60;95.00
38684;DHT22;24910;53.248;-6.134;2023-09-18T04:00:17;16.60;94.90
38684;DHT22;24910;53.248;-6.134;2023-09-18T04:02:48;16.60;95.00
38684;DHT22;24910;53.248;-6.134;2023-09-18T04:05:18;16.50;95.00
38684;DHT22;24910;53.248;-6.134;2023-09-18T04:07:47;16.50;95.00
38684;DHT22;24910;53.248;-6.134;2023-09-18T04:10:17;16.40;95.10
38684;DHT22;24910;53.248;-6.134;2023-09-18T04:12:52;16.40;95.10
38684;DHT22;24910;53.248;-6.134;2023-09-18T04:15:23;16.40;95.10
38684;DHT22;24910;53.248;-6.134;2023-09-18T04:17:55;16.30;95.10
38684;DHT22;24910;53.248;-6.134;2023-09-18T04:20:24;16.30;95.10
38684;DHT22;24910;53.248;-6.134;2023-09-18T04:23:18;16.20;95.10
38684;DHT22;24910;53.248;-6.134;2023-09-18T04:25:48;16.10;95.20
38684;DHT22;24910;53.248;-6.134;2023-09-18T04:28:20;16.10;95.20
38684;DHT22;24910;53.248;-6.134;2023-09-18T04:30:49;16.10;95.20
38684;DHT22;24910;53.248;-6.134;2023-09-18T04:33:21;16.00;95.20
38684;DHT22;24910;53.248;-6.134;2023-09-18T04:35:51;16.00;95.20
38684;DHT22;24910;53.248;-6.134;2023-09-18T04:38:21;16.00;95.20
38684;DHT22;24910;53.248;-6.134;2023-09-18T04:40:57;16.00;95.10
38684;DHT22;24910;53.248;-6.134;2023-09-18T04:43:27;15.90;95.00
38684;DHT22;24910;53.248;-6.134;2023-09-18T04:45:57;15.90;95.00
38684;DHT22;24910;53.248;-6.134;2023-09-18T04:48:28;15.80;95.00
38684;DHT22;24910;53.248;-6.134;2023-09-18T04:50:57;15.80;95.10
38684;DHT22;24910;53.248;-6.134;2023-09-18T04:53:28;15.80;95.00
38684;DHT22;24910;53.248;-6.134;2023-09-18T04:55:57;15.70;95.00
38684;DHT22;24910;53.248;-6.134;2023-09-18T04:58:28;15.70;95.00
38684;DHT22;24910;53.248;-6.134;2023-09-18T05:00:59;15.70;95.10
38684;DHT22;24910;53.248;-6.134;2023-09-18T05:03:30;15.70;94.90
38684;DHT22;24910;53.248;-6.134;2023-09-18T05:06:00;15.70;94.90
38684;DHT22;24910;53.248;-6.134;2023-09-18T05:08:31;15.70;94.90
38684;DHT22;24910;53.248;-6.134;2023-09-18T05:11:00;15.70;94.90
38684;DHT22;24910;53.248;-6.134;2023-09-18T05:13:29;15.60;94.80
38684;DHT22;24910;53.248;-6.134;2023-09-18T05:15:59;15.60;94.80
38684;DHT22;24910;53.248;-6.134;2023-09-18T05:18:30;15.60;94.80
38684;DHT22;24910;53.248;-6.134;2023-09-18T05:20:59;15.60;94.80
38684;DHT22;24910;53.248;-6.134;2023-09-18T05:23:30;15.60;94.80
38684;DHT22;24910;53.248;-6.134;2023-09-18T05:25:59;15.60;94.70
38684;DHT22;24910;53.248;-6.134;2023-09-18T05:28:29;15.50;94.70
38684;DHT22;24910;53.248;-6.134;2023-09-18T05:30:58;15.50;94.70
38684;DHT22;24910;53.248;-6.134;2023-09-18T05:33:29;15.50;94.70
38684;DHT22;24910;53.248;-6.134;2023-09-18T05:35:58;15.40;94.70
38684;DHT22;24910;53.248;-6.134;2023-09-18T05:38:28;15.40;94.70
38684;DHT22;24910;53.248;-6.134;2023-09-18T05:40:57;15.50;94.60
38684;DHT22;24910;53.248;-6.134;2023-09-18T05:43:27;15.40;94.60
38684;DHT22;24910;53.248;-6.134;2023-09-18T05:45:56;15.40;94.50
38684;DHT22;24910;53.248;-6.134;2023-09-18T05:48:25;15.40;94.50
38684;DHT22;24910;53.248;-6.134;2023-09-18T05:50:56;15.40;94.60
38684;DHT22;24910;53.248;-6.134;2023-09-18T05:53:26;15.40;94.50
38684;DHT22;24910;53.248;-6.134;2023-09-18T05:55:55;15.40;94.50
38684;DHT22;24910;53.248;-6.134;2023-09-18T05:58:32;15.40;94.40
38684;DHT22;24910;53.248;-6.134;2023-09-18T06:01:02;15.30;94.40
38684;DHT22;24910;53.248;-6.134;2023-09-18T06:03:32;15.30;94.40
38684;DHT22;24910;53.248;-6.134;2023-09-18T06:06:05;15.20;94.40
38684;DHT22;24910;53.248;-6.134;2023-09-18T06:08:35;15.20;94.40
38684;DHT22;24910;53.248;-6.134;2023-09-18T06:11:04;15.20;94.50
38684;DHT22;24910;53.248;-6.134;2023-09-18T06:13:34;15.10;94.50
38684;DHT22;24910;53.248;-6.134;2023-09-18T06:16:05;15.10;94.50
38684;DHT22;24910;53.248;-6.134;2023-09-18T06:18:36;15.10;94.50
38684;DHT22;24910;53.248;-6.134;2023-09-18T06:21:08;15.00;94.40
38684;DHT22;24910;53.248;-6.134;2023-09-18T06:23:37;15.00;94.40
38684;DHT22;24910;53.248;-6.134;2023-09-18T06:26:06;14.90;94.40
38684;DHT22;24910;53.248;-6.134;2023-09-18T06:28:38;14.90;94.40
38684;DHT22;24910;53.248;-6.134;2023-09-18T06:31:07;15.00;94.40
38684;DHT22;24910;53.248;-6.134;2023-09-18T06:33:37;15.00;94.40
38684;DHT22;24910;53.248;-6.134;2023-09-18T06:36:08;14.90;94.40
38684;DHT22;24910;53.248;-6.134;2023-09-18T06:38:37;14.90;94.40
38684;DHT22;24910;53.248;-6.134;2023-09-18T06:41:07;14.80;94.40
38684;DHT22;24910;53.248;-6.134;2023-09-18T06:43:37;14.90;94.40
38684;DHT22;24910;53.248;-6.134;2023-09-18T06:46:07;14.90;94.40
38684;DHT22;24910;53.248;-6.134;2023-09-18T06:48:37;14.80;94.40
38684;DHT22;24910;53.248;-6.134;2023-09-18T06:51:07;14.80;94.40
38684;DHT22;24910;53.248;-6.134;2023-09-18T06:53:37;14.80;94.40
38684;DHT22;24910;53.248;-6.134;2023-09-18T06:56:06;14.80;94.40
38684;DHT22;24910;53.248;-6.134;2023-09-18T06:58:37;14.80;94.40
38684;DHT22;24910;53.248;-6.134;2023-09-18T07:01:06;14.80;94.40
38684;DHT22;24910;53.248;-6.134;2023-09-18T07:03:37;14.80;94.40
38684;DHT22;24910;53.248;-6.134;2023-09-18T07:06:10;14.80;94.40
38684;DHT22;24910;53.248;-6.134;2023-09-18T07:08:39;14.80;94.40
38684;DHT22;24910;53.248;-6.134;2023-09-18T07:11:08;14.80;94.40
38684;DHT22;24910;53.248;-6.134;2023-09-18T07:13:38;14.80;94.40
38684;DHT22;24910;53.248;-6.134;2023-09-18T07:16:07;14.80;94.40
38684;DHT22;24910;53.248;-6.134;2023-09-18T07:18:37;14.80;94.40
38684;DHT22;24910;53.248;-6.134;2023-09-18T07:21:06;14.80;94.40
38684;DHT22;24910;53.248;-6.134;2023-09-18T07:23:39;14.80;94.40
38684;DHT22;24910;53.248;-6.134;2023-09-18T07:26:09;14.80;94.40
38684;DHT22;24910;53.248;-6.134;2023-09-18T07:28:38;14.80;94.40
38684;DHT22;24910;53.248;-6.134;2023-09-18T07:31:08;14.80;94.40
38684;DHT22;24910;53.248;-6.134;2023-09-18T07:33:40;14.80;94.40
38684;DHT22;24910;53.248;-6.134;2023-09-18T07:36:10;14.90;94.40
38684;DHT22;24910;53.248;-6.134;2023-09-18T07:38:40;15.00;94.30
38684;DHT22;24910;53.248;-6.134;2023-09-18T07:41:11;15.00;94.30
38684;DHT22;24910;53.248;-6.134;2023-09-18T07:43:43;15.10;94.30
38684;DHT22;24910;53.248;-6.134;2023-09-18T07:46:12;15.10;94.20
38684;DHT22;24910;53.248;-6.134;2023-09-18T07:48:42;15.10;94.30
38684;DHT22;24910;53.248;-6.134;2023-09-18T07:51:11;15.20;94.30
38684;DHT22;24910;53.248;-6.134;2023-09-18T07:53:43;15.30;94.30
38684;DHT22;24910;53.248;-6.134;2023-09-18T07:56:13;15.40;94.20
38684;DHT22;24910;53.248;-6.134;2023-09-18T07:58:42;15.40;94.20
38684;DHT22;24910;53.248;-6.134;2023-09-18T08:01:11;15.50;94.20
38684;DHT22;24910;53.248;-6.134;2023-09-18T08:03:41;15.60;94.60
38684;DHT22;24910;53.248;-6.134;2023-09-18T08:06:11;15.60;94.20
38684;DHT22;24910;53.248;-6.134;2023-09-18T08:08:43;15.80;94.10
38684;DHT22;24910;53.248;-6.134;2023-09-18T08:11:12;15.90;94.00
38684;DHT22;24910;53.248;-6.134;2023-09-18T08:13:42;15.90;93.90
38684;DHT22;24910;53.248;-6.134;2023-09-18T08:16:11;15.90;93.80
38684;DHT22;24910;53.248;-6.134;2023-09-18T08:18:42;16.00;93.80
38684;DHT22;24910;53.248;-6.134;2023-09-18T08:21:11;16.00;93.80
38684;DHT22;24910;53.248;-6.134;2023-09-18T08:23:41;16.10;93.80
38684;DHT22;24910;53.248;-6.134;2023-09-18T08:26:12;16.20;93.70
38684;DHT22;24910;53.248;-6.134;2023-09-18T08:28:41;16.20;93.70
38684;DHT22;24910;53.248;-6.134;2023-09-18T08:31:11;16.30;93.70
38684;DHT22;24910;53.248;-6.134;2023-09-18T08:33:42;16.30;93.60
38684;DHT22;24910;53.248;-6.134;2023-09-18T08:36:11;16.30;93.60
38684;DHT22;24910;53.248;-6.134;2023-09-18T08:38:43;16.40;93.60
38684;DHT22;24910;53.248;-6.134;2023-09-18T08:41:17;16.50;93.50
38684;DHT22;24910;53.248;-6.134;2023-09-18T08:43:48;16.60;93.50
38684;DHT22;24910;53.248;-6.134;2023-09-18T08:46:18;16.60;93.30
38684;DHT22;24910;53.248;-6.134;2023-09-18T08:48:49;16.70;93.30
38684;DHT22;24910;53.248;-6.134;2023-09-18T08:51:21;16.70;93.20
38684;DHT22;24910;53.248;-6.134;2023-09-18T08:53:51;16.80;93.20
38684;DHT22;24910;53.248;-6.134;2023-09-18T08:56:24;16.90;93.00
38684;DHT22;24910;53.248;-6.134;2023-09-18T08:58:53;17.00;93.00
38684;DHT22;24910;53.248;-6.134;2023-09-18T09:01:24;17.20;92.90
38684;DHT22;24910;53.248;-6.134;2023-09-18T09:03:54;17.20;92.70
38684;DHT22;24910;53.248;-6.134;2023-09-18T09:06:23;17.30;92.70
38684;DHT22;24910;53.248;-6.134;2023-09-18T09:08:52;17.30;92.60
38684;DHT22;24910;53.248;-6.134;2023-09-18T09:11:24;17.30;92.60
38684;DHT22;24910;53.248;-6.134;2023-09-18T09:14:09;17.30;92.20
38684;DHT22;24910;53.248;-6.134;2023-09-18T09:16:47;17.30;92.30
38684;DHT22;24910;53.248;-6.134;2023-09-18T09:19:17;17.40;92.20
38684;DHT22;24910;53.248;-6.134;2023-09-18T09:21:46;17.40;92.00
38684;DHT22;24910;53.248;-6.134;2023-09-18T09:24:16;17.40;92.10
38684;DHT22;24910;53.248;-6.134;2023-09-18T09:26:57;17.40;92.10
38684;DHT22;24910;53.248;-6.134;2023-09-18T09:29:27;17.40;92.00
38684;DHT22;24910;53.248;-6.134;2023-09-18T09:32:12;17.40;92.20
38684;DHT22;24910;53.248;-6.134;2023-09-18T09:34:42;17.30;92.10
38684;DHT22;24910;53.248;-6.134;2023-09-18T09:37:11;17.40;92.10
38684;DHT22;24910;53.248;-6.134;2023-09-18T09:39:49;17.50;92.10
38684;DHT22;24910;53.248;-6.134;2023-09-18T09:42:21;17.60;92.10
38684;DHT22;24910;53.248;-6.134;2023-09-18T09:45:02;17.70;92.00
38684;DHT22;24910;53.248;-6.134;2023-09-18T09:47:34;17.80;91.90
38684;DHT22;24910;53.248;-6.134;2023-09-18T09:50:07;17.90;91.80
38684;DHT22;24910;53.248;-6.134;2023-09-18T09:52:43;18.00;91.80
38684;DHT22;24910;53.248;-6.134;2023-09-18T09:55:19;18.10;91.70
38684;DHT22;24910;53.248;-6.134;2023-09-18T09:57:52;18.20;91.60
38684;DHT22;24910;53.248;-6.134;2023-09-18T10:00:22;18.20;91.50
38684;DHT22;24910;53.248;-6.134;2023-09-18T10:02:58;18.20;91.60
38684;DHT22;24910;53.248;-6.134;2023-09-18T10:05:29;18.20;91.60
38684;DHT22;24910;53.248;-6.134;2023-09-18T10:08:02;18.30;91.60
38684;DHT22;24910;53.248;-6.134;2023-09-18T10:10:34;18.30;91.60
38684;DHT22;24910;53.248;-6.134;2023-09-18T10:13:09;18.40;91.60
38684;DHT22;24910;53.248;-6.134;2023-09-18T10:15:39;18.50;91.50
38684;DHT22;24910;53.248;-6.134;2023-09-18T10:18:18;18.60;91.40
38684;DHT22;24910;53.248;-6.134;2023-09-18T10:20:51;18.70;91.30
38684;DHT22;24910;53.248;-6.134;2023-09-18T10:23:42;18.70;91.30
38684;DHT22;24910;53.248;-6.134;2023-09-18T10:26:21;18.80;91.30
38684;DHT22;24910;53.248;-6.134;2023-09-18T10:28:55;18.80;91.30
38684;DHT22;24910;53.248;-6.134;2023-09-18T10:31:28;18.80;91.20
38684;DHT22;24910;53.248;-6.134;2023-09-18T10:33:59;18.90;91.10
38684;DHT22;24910;53.248;-6.134;2023-09-18T10:36:29;18.90;91.10
38684;DHT22;24910;53.248;-6.134;2023-09-18T10:39:02;18.90;91.10
38684;DHT22;24910;53.248;-6.134;2023-09-18T10:41:36;18.90;91.10
38684;DHT22;24910;53.248;-6.134;2023-09-18T10:44:08;18.90;91.00
38684;DHT22;24910;53.248;-6.134;2023-09-18T10:46:39;18.80;90.90
38684;DHT22;24910;53.248;-6.134;2023-09-18T10:49:09;18.60;91.00
38684;DHT22;24910;53.248;-6.134;2023-09-18T10:51:39;18.50;91.00
38684;DHT22;24910;53.248;-6.134;2023-09-18T10:54:10;18.30;91.10
38684;DHT22;24910;53.248;-6.134;2023-09-18T10:56:42;18.30;91.20
38684;DHT22;24910;53.248;-6.134;2023-09-18T10:59:14;18.30;91.30
38684;DHT22;24910;53.248;-6.134;2023-09-18T11:01:44;18.40;91.20
38684;DHT22;24910;53.248;-6.134;2023-09-18T11:04:18;18.50;91.20
38684;DHT22;24910;53.248;-6.134;2023-09-18T11:07:05;18.50;90.90
38684;DHT22;24910;53.248;-6.134;2023-09-18T11:09:43;18.50;90.90
38684;DHT22;24910;53.248;-6.134;2023-09-18T11:12:15;18.60;90.80
38684;DHT22;24910;53.248;-6.134;2023-09-18T11:14:56;18.60;90.70
38684;DHT22;24910;53.248;-6.134;2023-09-18T11:17:31;18.70;90.70
38684;DHT22;24910;53.248;-6.134;2023-09-18T11:20:06;18.70;90.60
38684;DHT22;24910;53.248;-6.134;2023-09-18T11:22:38;18.60;90.50
38684;DHT22;24910;53.248;-6.134;2023-09-18T11:25:30;18.50;90.50
38684;DHT22;24910;53.248;-6.134;2023-09-18T11:28:03;18.30;90.60
38684;DHT22;24910;53.248;-6.134;2023-09-18T11:30:36;18.10;90.70
38684;DHT22;24910;53.248;-6.134;2023-09-18T11:33:07;18.10;90.90
38684;DHT22;24910;53.248;-6.134;2023-09-18T11:35:38;18.20;90.90
38684;DHT22;24910;53.248;-6.134;2023-09-18T11:38:21;18.30;90.80
38684;DHT22;24910;53.248;-6.134;2023-09-18T11:40:51;18.50;90.70
38684;DHT22;24910;53.248;-6.134;2023-09-18T11:43:26;18.50;90.50
38684;DHT22;24910;53.248;-6.134;2023-09-18T11:45:59;18.60;90.40
38684;DHT22;24910;53.248;-6.134;2023-09-18T11:48:32;18.50;90.40
38684;DHT22;24910;53.248;-6.134;2023-09-18T11:51:04;18.50;90.40
38684;DHT22;24910;53.248;-6.134;2023-09-18T11:53:36;18.40;90.50
38684;DHT22;24910;53.248;-6.134;2023-09-18T11:56:10;18.40;90.50
38684;DHT22;24910;53.248;-6.134;2023-09-18T11:58:46;18.40;90.50
38684;DHT22;24910;53.248;-6.134;2023-09-18T12:01:18;18.40;90.40
38684;DHT22;24910;53.248;-6.134;2023-09-18T12:03:53;18.40;90.30
38684;DHT22;24910;53.248;-6.134;2023-09-18T12:06:22;18.50;90.30
38684;DHT22;24910;53.248;-6.134;2023-09-18T12:08:52;18.50;90.20
38684;DHT22;24910;53.248;-6.134;2023-09-18T12:11:22;18.60;90.10
38684;DHT22;24910;53.248;-6.134;2023-09-18T12:13:51;18.70;90.10
38684;DHT22;24910;53.248;-6.134;2023-09-18T12:16:22;18.70;90.00
38684;DHT22;24910;53.248;-6.134;2023-09-18T12:18:52;18.80;89.90
38684;DHT22;24910;53.248;-6.134;2023-09-18T12:21:23;18.80;89.80
38684;DHT22;24910;53.248;-6.134;2023-09-18T12:23:52;18.80;89.70
38684;DHT22;24910;53.248;-6.134;2023-09-18T12:26:21;18.80;89.80
38684;DHT22;24910;53.248;-6.134;2023-09-18T12:28:54;18.90;89.80
38684;DHT22;24910;53.248;-6.134;2023-09-18T12:31:25;18.90;89.70
38684;DHT22;24910;53.248;-6.134;2023-09-18T12:33:57;18.90;89.60
38684;DHT22;24910;53.248;-6.134;2023-09-18T12:36:27;18.90;89.40
38684;DHT22;24910;53.248;-6.134;2023-09-18T12:38:58;18.80;89.40
38684;DHT22;24910;53.248;-6.134;2023-09-18T12:41:28;18.70;89.50
38684;DHT22;24910;53.248;-6.134;2023-09-18T12:44:00;18.50;89.70
38684;DHT22;24910;53.248;-6.134;2023-09-18T12:46:34;18.30;90.00
38684;DHT22;24910;53.248;-6.134;2023-09-18T12:49:17;18.10;90.10
38684;DHT22;24910;53.248;-6.134;2023-09-18T12:51:55;17.90;90.20
38684;DHT22;24910;53.248;-6.134;2023-09-18T12:54:38;17.80;90.30
38684;DHT22;24910;53.248;-6.134;2023-09-18T12:57:09;17.80;90.40
38684;DHT22;24910;53.248;-6.134;2023-09-18T12:59:38;17.80;90.50
38684;DHT22;24910;53.248;-6.134;2023-09-18T13:02:13;17.80;90.40
38684;DHT22;24910;53.248;-6.134;2023-09-18T13:04:50;17.90;90.40
38684;DHT22;24910;53.248;-6.134;2023-09-18T13:07:21;18.00;90.40
38684;DHT22;24910;53.248;-6.134;2023-09-18T13:10:00;18.10;90.30
38684;DHT22;24910;53.248;-6.134;2023-09-18T13:12:40;18.20;90.10
38684;DHT22;24910;53.248;-6.134;2023-09-18T13:15:10;18.30;90.00
38684;DHT22;24910;53.248;-6.134;2023-09-18T13:17:43;18.50;89.80
38684;DHT22;24910;53.248;-6.134;2023-09-18T13:20:15;18.60;89.50
38684;DHT22;24910;53.248;-6.134;2023-09-18T13:22:48;18.70;89.30
38684;DHT22;24910;53.248;-6.134;2023-09-18T13:25:21;18.70;89.00
38684;DHT22;24910;53.248;-6.134;2023-09-18T13:27:53;18.70;88.90
38684;DHT22;24910;53.248;-6.134;2023-09-18T13:30:22;18.70;88.80
38684;DHT22;24910;53.248;-6.134;2023-09-18T13:33:03;18.60;88.90
38684;DHT22;24910;53.248;-6.134;2023-09-18T13:35:36;18.60;88.60
38684;DHT22;24910;53.248;-6.134;2023-09-18T13:38:07;18.60;88.70
38684;DHT22;24910;53.248;-6.134;2023-09-18T13:40:37;18.60;88.60
38684;DHT22;24910;53.248;-6.134;2023-09-18T13:43:07;18.60;88.50
38684;DHT22;24910;53.248;-6.134;2023-09-18T13:45:37;18.50;88.30
38684;DHT22;24910;53.248;-6.134;2023-09-18T13:48:08;18.40;88.30
38684;DHT22;24910;53.248;-6.134;2023-09-18T13:50:38;18.40;88.30
38684;DHT22;24910;53.248;-6.134;2023-09-18T13:53:07;18.40;88.50
38684;DHT22;24910;53.248;-6.134;2023-09-18T13:55:37;18.30;88.40
38684;DHT22;24910;53.248;-6.134;2023-09-18T13:58:06;18.30;88.40
38684;DHT22;24910;53.248;-6.134;2023-09-18T14:00:36;18.20;88.40
38684;DHT22;24910;53.248;-6.134;2023-09-18T14:03:05;18.20;88.40
38684;DHT22;24910;53.248;-6.134;2023-09-18T14:05:36;18.20;88.50
38684;DHT22;24910;53.248;-6.134;2023-09-18T14:08:06;18.10;88.30
38684;DHT22;24910;53.248;-6.134;2023-09-18T14:10:35;18.20;88.30
38684;DHT22;24910;53.248;-6.134;2023-09-18T14:13:07;18.20;88.10
38684;DHT22;24910;53.248;-6.134;2023-09-18T14:15:36;18.20;88.10
38684;DHT22;24910;53.248;-6.134;2023-09-18T14:18:07;18.10;87.90
38684;DHT22;24910;53.248;-6.134;2023-09-18T14:20:38;18.10;87.90
38684;DHT22;24910;53.248;-6.134;2023-09-18T14:23:09;18.10;88.00
38684;DHT22;24910;53.248;-6.134;2023-09-18T14:25:38;18.00;87.90
38684;DHT22;24910;53.248;-6.134;2023-09-18T14:28:07;18.00;87.90
38684;DHT22;24910;53.248;-6.134;2023-09-18T14:30:36;17.90;87.80
38684;DHT22;24910;53.248;-6.134;2023-09-18T14:33:06;17.90;87.90
38684;DHT22;24910;53.248;-6.134;2023-09-18T14:35:38;17.90;87.80
38684;DHT22;24910;53.248;-6.134;2023-09-18T14:38:07;17.90;87.70
38684;DHT22;24910;53.248;-6.134;2023-09-18T14:40:45;17.90;87.60
38684;DHT22;24910;53.248;-6.134;2023-09-18T14:43:15;17.90;87.40
38684;DHT22;24910;53.248;-6.134;2023-09-18T14:45:46;17.90;87.20
38684;DHT22;24910;53.248;-6.134;2023-09-18T14:48:15;17.90;87.00
38684;DHT22;24910;53.248;-6.134;2023-09-18T14:50:53;17.80;87.00
38684;DHT22;24910;53.248;-6.134;2023-09-18T14:53:23;17.80;87.00
38684;DHT22;24910;53.248;-6.134;2023-09-18T14:55:54;17.70;87.10
38684;DHT22;24910;53.248;-6.134;2023-09-18T14:58:24;17.70;87.10
38684;DHT22;24910;53.248;-6.134;2023-09-18T15:00:53;17.70;87.10
38684;DHT22;24910;53.248;-6.134;2023-09-18T15:03:22;17.60;87.10
38684;DHT22;24910;53.248;-6.134;2023-09-18T15:05:53;17.60;87.20
38684;DHT22;24910;53.248;-6.134;2023-09-18T15:08:23;17.60;87.40
38684;DHT22;24910;53.248;-6.134;2023-09-18T15:10:53;17.60;87.50
38684;DHT22;24910;53.248;-6.134;2023-09-18T15:13:22;17.60;87.40
38684;DHT22;24910;53.248;-6.134;2023-09-18T15:15:51;17.60;87.30
38684;DHT22;24910;53.248;-6.134;2023-09-18T15:18:20;17.60;87.40
38684;DHT22;24910;53.248;-6.134;2023-09-18T15:20:49;17.60;87.50
38684;DHT22;24910;53.248;-6.134;2023-09-18T15:23:23;17.60;87.50
38684;DHT22;24910;53.248;-6.134;2023-09-18T15:25:52;17.60;87.20
38684;DHT22;24910;53.248;-6.134;2023-09-18T15:28:23;17.50;87.30
38684;DHT22;24910;53.248;-6.134;2023-09-18T15:30:54;17.50;87.40
38684;DHT22;24910;53.248;-6.134;2023-09-18T15:33:23;17.50;87.20
38684;DHT22;24910;53.248;-6.134;2023-09-18T15:35:53;17.40;87.30
38684;DHT22;24910;53.248;-6.134;2023-09-18T15:38:23;17.50;87.30
38684;DHT22;24910;53.248;-6.134;2023-09-18T15:40:55;17.40;87.30